DLH8VT EDDM-EDDF
Flight info
| Callsign | DLH8VT |
|---|---|
| Flight time | 0h 33m |
| Altitude | 24000 |
| Route | GIVMI6S GIVMI Y101 ERNAS T161 DEBHI DEBHI1B |
| Aircraft | A359/H-SDE2E3GHIJ1J3J4J5LM1ORWXY/LB1D1 |
Departure
| Time | 2026-05-07 15:22 |
|---|---|
| Airport | Munich Airport (EDDM) |
Arrival
| Time | 2026-05-07 15:55 |
|---|---|
| Airport | Frankfurt Main Airport (EDDF) |
| Time | Latitude | Longitude | Altitude | Speed | Heading |
|---|---|---|---|---|---|
| 2026-05-07 14:54 | 48.35470 | 11.79743 | 1492 ft | 0 kts | 83° |
| 2026-05-07 14:55 | 48.35469 | 11.79734 | 1488 ft | 0 kts | 83° |
| 2026-05-07 15:08 | 48.35468 | 11.79732 | 1492 ft | 1 kts | 83° |
| 2026-05-07 15:09 | 48.35467 | 11.79707 | 1476 ft | 3 kts | 83° |
| 2026-05-07 15:09 | 48.35464 | 11.79677 | 1482 ft | 3 kts | 83° |
| 2026-05-07 15:09 | 48.35462 | 11.79647 | 1476 ft | 3 kts | 85° |
| 2026-05-07 15:09 | 48.35462 | 11.79618 | 1482 ft | 3 kts | 105° |
| 2026-05-07 15:10 | 48.35469 | 11.79594 | 1476 ft | 3 kts | 145° |
| 2026-05-07 15:10 | 48.35481 | 11.79585 | 1476 ft | 1 kts | 173° |
| 2026-05-07 15:10 | 48.35497 | 11.79583 | 1479 ft | 3 kts | 173° |
| 2026-05-07 15:10 | 48.35512 | 11.79580 | 1476 ft | 1 kts | 173° |
| 2026-05-07 15:11 | 48.35513 | 11.79580 | 1476 ft | 0 kts | 173° |
| 2026-05-07 15:14 | 48.35496 | 11.79580 | 1479 ft | 3 kts | 184° |
| 2026-05-07 15:15 | 48.35493 | 11.79557 | 1476 ft | 3 kts | 281° |
| 2026-05-07 15:15 | 48.35530 | 11.79552 | 1476 ft | 8 kts | 2° |
| 2026-05-07 15:15 | 48.35622 | 11.79561 | 1478 ft | 16 kts | 358° |
| 2026-05-07 15:15 | 48.35732 | 11.79541 | 1482 ft | 14 kts | 353° |
| 2026-05-07 15:16 | 48.35840 | 11.79521 | 1478 ft | 17 kts | 353° |
| 2026-05-07 15:16 | 48.35965 | 11.79501 | 1478 ft | 19 kts | 354° |
| 2026-05-07 15:16 | 48.36079 | 11.79483 | 1482 ft | 13 kts | 354° |
| 2026-05-07 15:16 | 48.36161 | 11.79467 | 1482 ft | 13 kts | 353° |
| 2026-05-07 15:17 | 48.36210 | 11.79505 | 1479 ft | 7 kts | 59° |
| 2026-05-07 15:17 | 48.36221 | 11.79609 | 1482 ft | 14 kts | 80° |
| 2026-05-07 15:17 | 48.36240 | 11.79802 | 1482 ft | 23 kts | 83° |
| 2026-05-07 15:17 | 48.36260 | 11.80076 | 1492 ft | 30 kts | 84° |
| 2026-05-07 15:18 | 48.36285 | 11.80397 | 1488 ft | 32 kts | 83° |
| 2026-05-07 15:18 | 48.36311 | 11.80709 | 1480 ft | 22 kts | 83° |
| 2026-05-07 15:18 | 48.36331 | 11.80967 | 1492 ft | 27 kts | 84° |
| 2026-05-07 15:18 | 48.36352 | 11.81264 | 1477 ft | 31 kts | 84° |
| 2026-05-07 15:19 | 48.36376 | 11.81599 | 1478 ft | 31 kts | 84° |
| 2026-05-07 15:19 | 48.36385 | 11.81728 | 1483 ft | 10 kts | 84° |
| 2026-05-07 15:19 | 48.36395 | 11.81863 | 1482 ft | 16 kts | 84° |
| 2026-05-07 15:19 | 48.36404 | 11.82056 | 1492 ft | 21 kts | 88° |
| 2026-05-07 15:20 | 48.36411 | 11.82104 | 1478 ft | 5 kts | 65° |
| 2026-05-07 15:20 | 48.36448 | 11.82131 | 1476 ft | 9 kts | 6° |
| 2026-05-07 15:20 | 48.36535 | 11.82124 | 1479 ft | 16 kts | 353° |
| 2026-05-07 15:20 | 48.36640 | 11.82101 | 1480 ft | 10 kts | 352° |
| 2026-05-07 15:21 | 48.36678 | 11.82057 | 1482 ft | 5 kts | 282° |
| 2026-05-07 15:21 | 48.36671 | 11.81891 | 1484 ft | 44 kts | 262° |
| 2026-05-07 15:21 | 48.36605 | 11.81034 | 1490 ft | 119 kts | 263° |
| 2026-05-07 15:21 | 48.36484 | 11.79493 | 1636 ft | 164 kts | 265° |
| 2026-05-07 15:22 | 48.36380 | 11.77838 | 2602 ft | 156 kts | 268° |
| 2026-05-07 15:22 | 48.36301 | 11.76159 | 3262 ft | 170 kts | 268° |
| 2026-05-07 15:22 | 48.36208 | 11.74258 | 3723 ft | 195 kts | 268° |
| 2026-05-07 15:22 | 48.36104 | 11.72122 | 4303 ft | 214 kts | 267° |
| 2026-05-07 15:23 | 48.35977 | 11.69810 | 5013 ft | 229 kts | 266° |
| 2026-05-07 15:23 | 48.35998 | 11.67438 | 5866 ft | 233 kts | 282° |
| 2026-05-07 15:23 | 48.36739 | 11.65150 | 6629 ft | 250 kts | 305° |
| 2026-05-07 15:23 | 48.37758 | 11.63010 | 7434 ft | 260 kts | 302° |
| 2026-05-07 15:24 | 48.38756 | 11.60666 | 8295 ft | 271 kts | 299° |
| 2026-05-07 15:24 | 48.39719 | 11.58218 | 9429 ft | 272 kts | 298° |
| 2026-05-07 15:24 | 48.40703 | 11.55776 | 10552 ft | 274 kts | 300° |
| 2026-05-07 15:24 | 48.41739 | 11.53369 | 11646 ft | 275 kts | 301° |
| 2026-05-07 15:25 | 48.42783 | 11.50946 | 12687 ft | 278 kts | 300° |
| 2026-05-07 15:25 | 48.43814 | 11.48448 | 13634 ft | 284 kts | 298° |
| 2026-05-07 15:25 | 48.44835 | 11.45878 | 14524 ft | 288 kts | 297° |
| 2026-05-07 15:25 | 48.46241 | 11.43643 | 15391 ft | 297 kts | 324° |
| 2026-05-07 15:26 | 48.48144 | 11.42438 | 16294 ft | 306 kts | 343° |
| 2026-05-07 15:26 | 48.50256 | 11.41807 | 17197 ft | 311 kts | 347° |
| 2026-05-07 15:26 | 48.52409 | 11.41265 | 18130 ft | 314 kts | 347° |
| 2026-05-07 15:26 | 48.54571 | 11.40711 | 18933 ft | 317 kts | 346° |
| 2026-05-07 15:27 | 48.56759 | 11.40133 | 19673 ft | 321 kts | 346° |
| 2026-05-07 15:27 | 48.58972 | 11.39536 | 20417 ft | 325 kts | 346° |
| 2026-05-07 15:27 | 48.61224 | 11.38922 | 21020 ft | 336 kts | 346° |
| 2026-05-07 15:27 | 48.63576 | 11.38273 | 21434 ft | 351 kts | 346° |
| 2026-05-07 15:28 | 48.66007 | 11.37605 | 22077 ft | 358 kts | 346° |
| 2026-05-07 15:28 | 48.68461 | 11.36867 | 22831 ft | 361 kts | 343° |
| 2026-05-07 15:28 | 48.70824 | 11.35575 | 23576 ft | 360 kts | 331° |
| 2026-05-07 15:28 | 48.73008 | 11.33750 | 23935 ft | 359 kts | 327° |
| 2026-05-07 15:29 | 48.75117 | 11.31722 | 24027 ft | 359 kts | 324° |
| 2026-05-07 15:29 | 48.77102 | 11.29679 | 24025 ft | 361 kts | 323° |
| 2026-05-07 15:29 | 48.78121 | 11.28607 | 24021 ft | 361 kts | 323° |
| 2026-05-07 15:29 | 48.80035 | 11.26585 | 24026 ft | 370 kts | 323° |
| 2026-05-07 15:30 | 48.82197 | 11.24312 | 24024 ft | 383 kts | 323° |
| 2026-05-07 15:30 | 48.84345 | 11.21899 | 24026 ft | 385 kts | 318° |
| 2026-05-07 15:30 | 48.86386 | 11.19242 | 24024 ft | 386 kts | 317° |
| 2026-05-07 15:30 | 48.88393 | 11.16532 | 24024 ft | 386 kts | 316° |
| 2026-05-07 15:31 | 48.90355 | 11.13824 | 24023 ft | 386 kts | 316° |
| 2026-05-07 15:31 | 48.92338 | 11.11056 | 24035 ft | 386 kts | 316° |
| 2026-05-07 15:31 | 48.94312 | 11.08286 | 24036 ft | 386 kts | 315° |
| 2026-05-07 15:31 | 48.96288 | 11.05512 | 24036 ft | 386 kts | 315° |
| 2026-05-07 15:32 | 48.98261 | 11.02743 | 24035 ft | 386 kts | 315° |
| 2026-05-07 15:32 | 49.00237 | 10.99967 | 24050 ft | 386 kts | 316° |
| 2026-05-07 15:32 | 49.02211 | 10.97191 | 24058 ft | 387 kts | 316° |
| 2026-05-07 15:32 | 49.04191 | 10.94407 | 24057 ft | 388 kts | 316° |
| 2026-05-07 15:33 | 49.06176 | 10.91614 | 24060 ft | 388 kts | 316° |
| 2026-05-07 15:33 | 49.08157 | 10.88825 | 24061 ft | 388 kts | 316° |
| 2026-05-07 15:33 | 49.10139 | 10.86037 | 24060 ft | 388 kts | 316° |
| 2026-05-07 15:33 | 49.12121 | 10.83239 | 24058 ft | 388 kts | 316° |
| 2026-05-07 15:34 | 49.14098 | 10.80439 | 24075 ft | 388 kts | 315° |
| 2026-05-07 15:34 | 49.16071 | 10.77640 | 24080 ft | 388 kts | 315° |
| 2026-05-07 15:34 | 49.18050 | 10.74831 | 24077 ft | 388 kts | 315° |
| 2026-05-07 15:34 | 49.20024 | 10.72024 | 24074 ft | 388 kts | 316° |
| 2026-05-07 15:35 | 49.21937 | 10.69121 | 24043 ft | 387 kts | 313° |
| 2026-05-07 15:35 | 49.23803 | 10.66135 | 24043 ft | 387 kts | 312° |
| 2026-05-07 15:35 | 49.25664 | 10.63157 | 24047 ft | 387 kts | 312° |
| 2026-05-07 15:35 | 49.27537 | 10.60173 | 24048 ft | 390 kts | 313° |
| 2026-05-07 15:36 | 49.29426 | 10.57175 | 24045 ft | 392 kts | 313° |
| 2026-05-07 15:36 | 49.31325 | 10.54165 | 24043 ft | 393 kts | 313° |
| 2026-05-07 15:36 | 49.33225 | 10.51156 | 24044 ft | 393 kts | 313° |
| 2026-05-07 15:36 | 49.35124 | 10.48137 | 24050 ft | 393 kts | 313° |
| 2026-05-07 15:37 | 49.36861 | 10.44914 | 24037 ft | 392 kts | 306° |
| 2026-05-07 15:37 | 49.38448 | 10.41510 | 24034 ft | 392 kts | 304° |
| 2026-05-07 15:37 | 49.40015 | 10.38065 | 24037 ft | 392 kts | 304° |
| 2026-05-07 15:37 | 49.41574 | 10.34631 | 24039 ft | 392 kts | 304° |
| 2026-05-07 15:38 | 49.43138 | 10.31191 | 24044 ft | 392 kts | 304° |
| 2026-05-07 15:38 | 49.44700 | 10.27756 | 24050 ft | 391 kts | 304° |
| 2026-05-07 15:38 | 49.46240 | 10.24369 | 24047 ft | 391 kts | 304° |
| 2026-05-07 15:38 | 49.47815 | 10.20897 | 24048 ft | 391 kts | 304° |
| 2026-05-07 15:39 | 49.49352 | 10.17506 | 24047 ft | 391 kts | 304° |
| 2026-05-07 15:39 | 49.50908 | 10.14071 | 24004 ft | 397 kts | 304° |
| 2026-05-07 15:39 | 49.52504 | 10.10541 | 23759 ft | 400 kts | 304° |
| 2026-05-07 15:39 | 49.54097 | 10.07016 | 22870 ft | 404 kts | 304° |
| 2026-05-07 15:40 | 49.55717 | 10.03423 | 21804 ft | 412 kts | 304° |
| 2026-05-07 15:40 | 49.57352 | 9.99794 | 20990 ft | 412 kts | 304° |
| 2026-05-07 15:40 | 49.58977 | 9.96186 | 20294 ft | 408 kts | 304° |
| 2026-05-07 15:40 | 49.60591 | 9.92612 | 19740 ft | 402 kts | 304° |
| 2026-05-07 15:41 | 49.61646 | 9.90270 | 19572 ft | 402 kts | 304° |
| 2026-05-07 15:41 | 49.63238 | 9.86714 | 19322 ft | 404 kts | 303° |
| 2026-05-07 15:41 | 49.64831 | 9.83150 | 19071 ft | 403 kts | 303° |
| 2026-05-07 15:41 | 49.66418 | 9.79595 | 18842 ft | 402 kts | 303° |
| 2026-05-07 15:42 | 49.67995 | 9.76057 | 18417 ft | 396 kts | 303° |
| 2026-05-07 15:42 | 49.69548 | 9.72572 | 17780 ft | 392 kts | 303° |
| 2026-05-07 15:42 | 49.71084 | 9.69117 | 17137 ft | 388 kts | 303° |
| 2026-05-07 15:42 | 49.72603 | 9.65697 | 16508 ft | 384 kts | 304° |
| 2026-05-07 15:43 | 49.74108 | 9.62304 | 15883 ft | 381 kts | 304° |
| 2026-05-07 15:43 | 49.75606 | 9.58935 | 15301 ft | 380 kts | 304° |
| 2026-05-07 15:43 | 49.77099 | 9.55561 | 14704 ft | 380 kts | 304° |
| 2026-05-07 15:43 | 49.78588 | 9.52190 | 14100 ft | 377 kts | 304° |
| 2026-05-07 15:44 | 49.80162 | 9.48967 | 13484 ft | 374 kts | 310° |
| 2026-05-07 15:44 | 49.81900 | 9.46010 | 12803 ft | 370 kts | 313° |
| 2026-05-07 15:44 | 49.83676 | 9.43154 | 12093 ft | 366 kts | 314° |
| 2026-05-07 15:44 | 49.85433 | 9.40338 | 11383 ft | 362 kts | 314° |
| 2026-05-07 15:45 | 49.87178 | 9.37540 | 10759 ft | 357 kts | 314° |
| 2026-05-07 15:45 | 49.88867 | 9.34829 | 10459 ft | 343 kts | 314° |
| 2026-05-07 15:45 | 49.90492 | 9.32220 | 10209 ft | 329 kts | 314° |
| 2026-05-07 15:45 | 49.92052 | 9.29716 | 9985 ft | 315 kts | 314° |
| 2026-05-07 15:46 | 49.94976 | 9.25018 | 9530 ft | 290 kts | 314° |
| 2026-05-07 15:46 | 49.96353 | 9.22806 | 9256 ft | 281 kts | 314° |
| 2026-05-07 15:46 | 49.97701 | 9.20642 | 8855 ft | 277 kts | 314° |
| 2026-05-07 15:47 | 49.99036 | 9.18503 | 8446 ft | 274 kts | 314° |
| 2026-05-07 15:47 | 50.00350 | 9.16397 | 7929 ft | 268 kts | 314° |
| 2026-05-07 15:47 | 50.01640 | 9.14333 | 7202 ft | 266 kts | 314° |
| 2026-05-07 15:47 | 50.02931 | 9.12272 | 6600 ft | 265 kts | 314° |
| 2026-05-07 15:48 | 50.04219 | 9.10221 | 6090 ft | 264 kts | 314° |
| 2026-05-07 15:48 | 50.05483 | 9.08206 | 5591 ft | 262 kts | 314° |
| 2026-05-07 15:48 | 50.06751 | 9.06177 | 5077 ft | 260 kts | 314° |
| 2026-05-07 15:48 | 50.08002 | 9.04159 | 4449 ft | 258 kts | 314° |
| 2026-05-07 15:49 | 50.09245 | 9.02133 | 4070 ft | 256 kts | 314° |
| 2026-05-07 15:49 | 50.10458 | 9.00114 | 3992 ft | 255 kts | 312° |
| 2026-05-07 15:49 | 50.11319 | 8.97710 | 3996 ft | 256 kts | 289° |
| 2026-05-07 15:49 | 50.11772 | 8.95034 | 3996 ft | 255 kts | 284° |
| 2026-05-07 15:50 | 50.11864 | 8.92271 | 3989 ft | 258 kts | 264° |
| 2026-05-07 15:50 | 50.11427 | 8.89615 | 3981 ft | 246 kts | 252° |
| 2026-05-07 15:50 | 50.10819 | 8.87219 | 3979 ft | 229 kts | 250° |
| 2026-05-07 15:50 | 50.10266 | 8.84985 | 3958 ft | 214 kts | 251° |
| 2026-05-07 15:51 | 50.09757 | 8.82842 | 3749 ft | 209 kts | 252° |
| 2026-05-07 15:51 | 50.09262 | 8.80724 | 3453 ft | 208 kts | 252° |
| 2026-05-07 15:51 | 50.08761 | 8.78622 | 3122 ft | 206 kts | 252° |
| 2026-05-07 15:51 | 50.08269 | 8.76559 | 2834 ft | 200 kts | 251° |
| 2026-05-07 15:52 | 50.07801 | 8.74591 | 2562 ft | 187 kts | 252° |
| 2026-05-07 15:52 | 50.07366 | 8.72762 | 2310 ft | 173 kts | 251° |
| 2026-05-07 15:52 | 50.06967 | 8.71088 | 2090 ft | 158 kts | 251° |
| 2026-05-07 15:52 | 50.06599 | 8.69545 | 1866 ft | 146 kts | 252° |
| 2026-05-07 15:53 | 50.06265 | 8.68135 | 1683 ft | 137 kts | 252° |
| 2026-05-07 15:53 | 50.05932 | 8.66738 | 1490 ft | 135 kts | 252° |
| 2026-05-07 15:53 | 50.05608 | 8.65380 | 1327 ft | 136 kts | 252° |
| 2026-05-07 15:53 | 50.05291 | 8.64001 | 1125 ft | 130 kts | 252° |
| 2026-05-07 15:54 | 50.04986 | 8.62720 | 965 ft | 127 kts | 250° |
| 2026-05-07 15:54 | 50.04679 | 8.61456 | 802 ft | 124 kts | 250° |
| 2026-05-07 15:54 | 50.04376 | 8.60198 | 627 ft | 123 kts | 250° |
| 2026-05-07 15:54 | 50.04077 | 8.58945 | 455 ft | 124 kts | 250° |
| 2026-05-07 15:55 | 50.03778 | 8.57706 | 375 ft | 118 kts | 250° |
| 2026-05-07 15:55 | 50.03563 | 8.56798 | 363 ft | 58 kts | 250° |
| 2026-05-07 15:55 | 50.03487 | 8.56474 | 364 ft | 24 kts | 250° |
| 2026-05-07 15:55 | 50.03445 | 8.56275 | 364 ft | 20 kts | 258° |
| 2026-05-07 15:56 | 50.03439 | 8.56050 | 360 ft | 22 kts | 275° |
| 2026-05-07 15:56 | 50.03456 | 8.55866 | 353 ft | 8 kts | 280° |
| 2026-05-07 15:56 | 50.03468 | 8.55758 | 356 ft | 12 kts | 279° |
| 2026-05-07 15:56 | 50.03484 | 8.55611 | 356 ft | 15 kts | 279° |
| 2026-05-07 15:57 | 50.03487 | 8.55445 | 354 ft | 16 kts | 257° |
| 2026-05-07 15:57 | 50.03447 | 8.55279 | 359 ft | 18 kts | 248° |
| 2026-05-07 15:57 | 50.03396 | 8.55084 | 359 ft | 21 kts | 251° |
| 2026-05-07 15:57 | 50.03349 | 8.54855 | 354 ft | 24 kts | 252° |
| 2026-05-07 15:58 | 50.03287 | 8.54622 | 355 ft | 16 kts | 249° |
| 2026-05-07 15:58 | 50.03286 | 8.54525 | 351 ft | 5 kts | 304° |
| 2026-05-07 15:58 | 50.03337 | 8.54465 | 355 ft | 12 kts | 338° |
| 2026-05-07 15:58 | 50.03375 | 8.54445 | 355 ft | 3 kts | 340° |
| 2026-05-07 15:59 | 50.03382 | 8.54440 | 352 ft | 0 kts | 340° |
| 2026-05-07 16:01 | 50.03393 | 8.54434 | 356 ft | 6 kts | 340° |
| 2026-05-07 16:02 | 50.03460 | 8.54397 | 357 ft | 12 kts | 339° |
| 2026-05-07 16:02 | 50.03545 | 8.54347 | 354 ft | 15 kts | 339° |
| 2026-05-07 16:02 | 50.03598 | 8.54315 | 358 ft | 0 kts | 340° |
| 2026-05-07 16:02 | 50.03639 | 8.54315 | 356 ft | 8 kts | 23° |
| 2026-05-07 16:03 | 50.03674 | 8.54376 | 354 ft | 9 kts | 66° |
| 2026-05-07 16:03 | 50.03712 | 8.54537 | 360 ft | 18 kts | 70° |
| 2026-05-07 16:03 | 50.03757 | 8.54730 | 360 ft | 20 kts | 70° |
| 2026-05-07 16:03 | 50.03807 | 8.54942 | 361 ft | 22 kts | 70° |
| 2026-05-07 16:04 | 50.03863 | 8.55177 | 360 ft | 24 kts | 70° |
| 2026-05-07 16:04 | 50.03925 | 8.55434 | 365 ft | 27 kts | 69° |
| 2026-05-07 16:04 | 50.03993 | 8.55716 | 361 ft | 28 kts | 69° |
| 2026-05-07 16:04 | 50.04043 | 8.55922 | 359 ft | 14 kts | 67° |
| 2026-05-07 16:05 | 50.04102 | 8.55964 | 367 ft | 7 kts | 342° |
| 2026-05-07 16:05 | 50.04158 | 8.55933 | 363 ft | 10 kts | 340° |
| 2026-05-07 16:05 | 50.04218 | 8.55923 | 365 ft | 7 kts | 26° |
| 2026-05-07 16:05 | 50.04268 | 8.55959 | 366 ft | 11 kts | 11° |
| 2026-05-07 16:06 | 50.04351 | 8.55924 | 368 ft | 13 kts | 340° |
| 2026-05-07 16:06 | 50.04438 | 8.55915 | 369 ft | 13 kts | 16° |
| 2026-05-07 16:06 | 50.04532 | 8.55959 | 366 ft | 13 kts | 18° |
| 2026-05-07 16:06 | 50.04568 | 8.56027 | 370 ft | 8 kts | 66° |
| 2026-05-07 16:07 | 50.04595 | 8.56127 | 370 ft | 10 kts | 68° |
| 2026-05-07 16:07 | 50.04625 | 8.56208 | 369 ft | 7 kts | 32° |
| 2026-05-07 16:07 | 50.04640 | 8.56203 | 368 ft | 2 kts | 332° |
| 2026-05-07 16:07 | 50.04658 | 8.56187 | 369 ft | 4 kts | 332° |
| 2026-05-07 16:08 | 50.04691 | 8.56165 | 371 ft | 6 kts | 340° |
| 2026-05-07 16:08 | 50.04700 | 8.56160 | 371 ft | 0 kts | 340° |